sensor_id;sensor_type;location;lat;lon;timestamp;temperature;humidity
21267;DHT22;10791;53.108;18.326;2023-08-06T00:04:21;16.50;99.90
21267;DHT22;10791;53.108;18.326;2023-08-06T00:09:25;16.50;99.90
21267;DHT22;10791;53.108;18.326;2023-08-06T00:14:28;16.40;99.90
21267;DHT22;10791;53.108;18.326;2023-08-06T00:19:32;16.40;99.90
21267;DHT22;10791;53.108;18.326;2023-08-06T00:24:35;16.30;99.90
21267;DHT22;10791;53.108;18.326;2023-08-06T00:29:39;16.30;99.90
21267;DHT22;10791;53.108;18.326;2023-08-06T00:34:42;16.20;99.90
21267;DHT22;10791;53.108;18.326;2023-08-06T00:39:46;16.20;99.90
21267;DHT22;10791;53.108;18.326;2023-08-06T00:44:49;16.10;99.90
21267;DHT22;10791;53.108;18.326;2023-08-06T00:49:52;16.10;99.90
21267;DHT22;10791;53.108;18.326;2023-08-06T00:54:56;16.00;99.90
21267;DHT22;10791;53.108;18.326;2023-08-06T01:00:00;16.00;99.90
21267;DHT22;10791;53.108;18.326;2023-08-06T01:05:03;15.90;99.90
21267;DHT22;10791;53.108;18.326;2023-08-06T01:10:23;15.90;99.90
21267;DHT22;10791;53.108;18.326;2023-08-06T01:15:33;15.90;99.90
21267;DHT22;10791;53.108;18.326;2023-08-06T01:20:38;15.80;99.90
21267;DHT22;10791;53.108;18.326;2023-08-06T01:30:50;15.80;99.90
21267;DHT22;10791;53.108;18.326;2023-08-06T01:35:56;15.70;99.90
21267;DHT22;10791;53.108;18.326;2023-08-06T01:41:00;15.70;99.90
21267;DHT22;10791;53.108;18.326;2023-08-06T01:46:03;15.70;99.90
21267;DHT22;10791;53.108;18.326;2023-08-06T01:51:07;15.70;99.90
21267;DHT22;10791;53.108;18.326;2023-08-06T01:56:11;15.70;99.90
21267;DHT22;10791;53.108;18.326;2023-08-06T02:01:14;15.70;99.90
21267;DHT22;10791;53.108;18.326;2023-08-06T02:06:18;15.70;99.90
21267;DHT22;10791;53.108;18.326;2023-08-06T02:11:21;15.80;99.90
21267;DHT22;10791;53.108;18.326;2023-08-06T02:16:25;15.80;99.90
21267;DHT22;10791;53.108;18.326;2023-08-06T02:21:28;15.90;99.90
21267;DHT22;10791;53.108;18.326;2023-08-06T02:26:32;15.90;99.90
21267;DHT22;10791;53.108;18.326;2023-08-06T02:31:36;16.00;99.90
21267;DHT22;10791;53.108;18.326;2023-08-06T02:36:39;16.10;99.90
21267;DHT22;10791;53.108;18.326;2023-08-06T02:41:43;16.10;99.90
21267;DHT22;10791;53.108;18.326;2023-08-06T02:46:46;16.20;99.90
21267;DHT22;10791;53.108;18.326;2023-08-06T02:51:49;16.30;99.90
21267;DHT22;10791;53.108;18.326;2023-08-06T02:56:53;16.40;99.90
21267;DHT22;10791;53.108;18.326;2023-08-06T03:01:56;16.40;99.90
21267;DHT22;10791;53.108;18.326;2023-08-06T03:07:00;16.40;99.90
21267;DHT22;10791;53.108;18.326;2023-08-06T03:12:03;16.40;99.90
21267;DHT22;10791;53.108;18.326;2023-08-06T03:17:06;16.40;99.90
21267;DHT22;10791;53.108;18.326;2023-08-06T03:22:10;16.50;99.90
21267;DHT22;10791;53.108;18.326;2023-08-06T03:27:13;16.60;99.90
21267;DHT22;10791;53.108;18.326;2023-08-06T03:32:16;16.70;99.90
21267;DHT22;10791;53.108;18.326;2023-08-06T03:37:20;16.60;99.90
21267;DHT22;10791;53.108;18.326;2023-08-06T03:42:23;16.60;99.90
21267;DHT22;10791;53.108;18.326;2023-08-06T03:47:26;16.60;99.90
21267;DHT22;10791;53.108;18.326;2023-08-06T03:52:29;16.70;99.90
21267;DHT22;10791;53.108;18.326;2023-08-06T03:57:33;16.60;99.90
21267;DHT22;10791;53.108;18.326;2023-08-06T04:02:37;16.70;99.90
21267;DHT22;10791;53.108;18.326;2023-08-06T04:07:40;16.80;99.90
21267;DHT22;10791;53.108;18.326;2023-08-06T04:12:44;16.80;99.90
21267;DHT22;10791;53.108;18.326;2023-08-06T04:17:47;16.80;99.90
21267;DHT22;10791;53.108;18.326;2023-08-06T04:22:50;16.80;99.90
21267;DHT22;10791;53.108;18.326;2023-08-06T04:27:54;16.90;99.90
21267;DHT22;10791;53.108;18.326;2023-08-06T04:32:57;16.90;99.90
21267;DHT22;10791;53.108;18.326;2023-08-06T04:38:03;16.90;99.90
21267;DHT22;10791;53.108;18.326;2023-08-06T04:43:07;16.90;99.90
21267;DHT22;10791;53.108;18.326;2023-08-06T04:48:10;17.00;99.90
21267;DHT22;10791;53.108;18.326;2023-08-06T04:53:13;17.00;99.90
21267;DHT22;10791;53.108;18.326;2023-08-06T04:58:17;17.10;99.90
21267;DHT22;10791;53.108;18.326;2023-08-06T05:03:21;17.10;99.90
21267;DHT22;10791;53.108;18.326;2023-08-06T05:08:24;17.20;99.90
21267;DHT22;10791;53.108;18.326;2023-08-06T05:13:27;17.30;99.90
21267;DHT22;10791;53.108;18.326;2023-08-06T05:18:31;17.40;99.90
21267;DHT22;10791;53.108;18.326;2023-08-06T05:23:34;17.40;99.90
21267;DHT22;10791;53.108;18.326;2023-08-06T05:28:37;17.40;99.90
21267;DHT22;10791;53.108;18.326;2023-08-06T05:33:41;17.50;99.90
21267;DHT22;10791;53.108;18.326;2023-08-06T05:38:44;17.50;99.90
21267;DHT22;10791;53.108;18.326;2023-08-06T05:43:48;17.50;99.90
21267;DHT22;10791;53.108;18.326;2023-08-06T05:48:51;17.50;99.90
21267;DHT22;10791;53.108;18.326;2023-08-06T05:53:54;17.60;99.90
21267;DHT22;10791;53.108;18.326;2023-08-06T05:58:58;17.60;99.90
21267;DHT22;10791;53.108;18.326;2023-08-06T06:04:02;17.70;99.90
21267;DHT22;10791;53.108;18.326;2023-08-06T06:09:05;17.70;99.90
21267;DHT22;10791;53.108;18.326;2023-08-06T06:14:09;17.80;99.90
21267;DHT22;10791;53.108;18.326;2023-08-06T06:19:12;17.90;99.90
21267;DHT22;10791;53.108;18.326;2023-08-06T06:24:16;18.00;99.90
21267;DHT22;10791;53.108;18.326;2023-08-06T06:29:19;18.10;99.90
21267;DHT22;10791;53.108;18.326;2023-08-06T06:34:23;18.20;99.90
21267;DHT22;10791;53.108;18.326;2023-08-06T06:39:26;18.20;99.90
21267;DHT22;10791;53.108;18.326;2023-08-06T06:44:29;18.20;99.90
21267;DHT22;10791;53.108;18.326;2023-08-06T06:49:33;18.30;99.90
21267;DHT22;10791;53.108;18.326;2023-08-06T06:54:36;18.40;99.90
21267;DHT22;10791;53.108;18.326;2023-08-06T06:59:40;18.50;99.90
21267;DHT22;10791;53.108;18.326;2023-08-06T07:04:43;18.50;99.90
21267;DHT22;10791;53.108;18.326;2023-08-06T07:09:46;18.40;99.90
21267;DHT22;10791;53.108;18.326;2023-08-06T07:14:50;18.40;99.90
21267;DHT22;10791;53.108;18.326;2023-08-06T07:19:53;18.50;99.90
21267;DHT22;10791;53.108;18.326;2023-08-06T07:24:56;18.50;99.90
21267;DHT22;10791;53.108;18.326;2023-08-06T07:30:00;18.50;99.90
21267;DHT22;10791;53.108;18.326;2023-08-06T07:35:04;18.40;99.90
21267;DHT22;10791;53.108;18.326;2023-08-06T07:40:08;18.50;99.90
21267;DHT22;10791;53.108;18.326;2023-08-06T07:45:11;18.50;99.90
21267;DHT22;10791;53.108;18.326;2023-08-06T07:50:15;18.60;99.90
21267;DHT22;10791;53.108;18.326;2023-08-06T07:55:19;18.60;99.90
21267;DHT22;10791;53.108;18.326;2023-08-06T08:00:22;18.70;99.90
21267;DHT22;10791;53.108;18.326;2023-08-06T08:05:26;18.70;99.90
21267;DHT22;10791;53.108;18.326;2023-08-06T08:10:36;18.70;99.90
21267;DHT22;10791;53.108;18.326;2023-08-06T08:15:41;18.70;99.90
21267;DHT22;10791;53.108;18.326;2023-08-06T08:20:45;18.70;99.90
21267;DHT22;10791;53.108;18.326;2023-08-06T08:25:48;18.60;99.90
21267;DHT22;10791;53.108;18.326;2023-08-06T08:30:51;18.60;99.90
21267;DHT22;10791;53.108;18.326;2023-08-06T08:35:55;18.60;99.90
21267;DHT22;10791;53.108;18.326;2023-08-06T08:40:58;18.60;99.90
21267;DHT22;10791;53.108;18.326;2023-08-06T08:46:02;18.60;99.90
21267;DHT22;10791;53.108;18.326;2023-08-06T08:51:06;18.70;99.90
21267;DHT22;10791;53.108;18.326;2023-08-06T08:56:12;18.70;99.90
21267;DHT22;10791;53.108;18.326;2023-08-06T09:01:21;18.70;99.90
21267;DHT22;10791;53.108;18.326;2023-08-06T09:06:28;18.70;99.90
21267;DHT22;10791;53.108;18.326;2023-08-06T09:11:42;18.70;99.90
21267;DHT22;10791;53.108;18.326;2023-08-06T09:16:48;18.70;99.90
21267;DHT22;10791;53.108;18.326;2023-08-06T09:21:56;18.70;99.90
21267;DHT22;10791;53.108;18.326;2023-08-06T09:27:02;18.80;99.90
21267;DHT22;10791;53.108;18.326;2023-08-06T09:32:09;18.90;99.90
21267;DHT22;10791;53.108;18.326;2023-08-06T09:37:19;18.90;99.90
21267;DHT22;10791;53.108;18.326;2023-08-06T09:42:28;18.90;99.90
21267;DHT22;10791;53.108;18.326;2023-08-06T09:47:39;18.90;99.90
21267;DHT22;10791;53.108;18.326;2023-08-06T09:52:48;18.90;99.90
21267;DHT22;10791;53.108;18.326;2023-08-06T09:57:55;18.90;99.90
21267;DHT22;10791;53.108;18.326;2023-08-06T10:03:03;19.00;99.90
21267;DHT22;10791;53.108;18.326;2023-08-06T10:08:12;19.10;99.90
21267;DHT22;10791;53.108;18.326;2023-08-06T10:13:20;19.00;99.90
21267;DHT22;10791;53.108;18.326;2023-08-06T10:18:25;19.10;99.90
21267;DHT22;10791;53.108;18.326;2023-08-06T10:23:36;19.20;99.90
21267;DHT22;10791;53.108;18.326;2023-08-06T10:28:41;19.20;99.90
21267;DHT22;10791;53.108;18.326;2023-08-06T10:33:48;19.30;99.90
21267;DHT22;10791;53.108;18.326;2023-08-06T10:38:51;19.40;99.90
21267;DHT22;10791;53.108;18.326;2023-08-06T10:44:21;19.40;99.90
21267;DHT22;10791;53.108;18.326;2023-08-06T10:49:33;19.50;99.90
21267;DHT22;10791;53.108;18.326;2023-08-06T10:54:36;19.40;99.90
21267;DHT22;10791;53.108;18.326;2023-08-06T10:59:40;19.50;99.90
21267;DHT22;10791;53.108;18.326;2023-08-06T11:04:45;19.50;99.90
21267;DHT22;10791;53.108;18.326;2023-08-06T11:09:51;19.50;99.90
21267;DHT22;10791;53.108;18.326;2023-08-06T11:14:56;19.60;99.90
21267;DHT22;10791;53.108;18.326;2023-08-06T11:20:01;19.60;99.90
21267;DHT22;10791;53.108;18.326;2023-08-06T11:25:07;19.70;99.90
21267;DHT22;10791;53.108;18.326;2023-08-06T11:30:11;19.90;99.90
21267;DHT22;10791;53.108;18.326;2023-08-06T11:35:18;20.00;99.90
21267;DHT22;10791;53.108;18.326;2023-08-06T11:40:22;20.10;99.90
21267;DHT22;10791;53.108;18.326;2023-08-06T11:45:25;20.20;99.90
21267;DHT22;10791;53.108;18.326;2023-08-06T11:50:28;20.30;99.90
21267;DHT22;10791;53.108;18.326;2023-08-06T11:55:33;20.40;99.90
21267;DHT22;10791;53.108;18.326;2023-08-06T12:00:39;20.60;99.90
21267;DHT22;10791;53.108;18.326;2023-08-06T12:05:44;20.70;99.90
21267;DHT22;10791;53.108;18.326;2023-08-06T12:10:49;20.70;99.90
21267;DHT22;10791;53.108;18.326;2023-08-06T12:15:54;20.80;99.90
21267;DHT22;10791;53.108;18.326;2023-08-06T12:21:00;20.80;99.90
21267;DHT22;10791;53.108;18.326;2023-08-06T12:26:03;20.80;99.90
21267;DHT22;10791;53.108;18.326;2023-08-06T12:31:06;20.70;99.90
21267;DHT22;10791;53.108;18.326;2023-08-06T12:36:10;20.80;99.90
21267;DHT22;10791;53.108;18.326;2023-08-06T12:41:13;20.90;99.90
21267;DHT22;10791;53.108;18.326;2023-08-06T12:46:17;21.00;99.90
21267;DHT22;10791;53.108;18.326;2023-08-06T12:51:20;21.00;99.90
21267;DHT22;10791;53.108;18.326;2023-08-06T12:56:24;21.20;99.90
21267;DHT22;10791;53.108;18.326;2023-08-06T13:01:27;21.90;99.90
21267;DHT22;10791;53.108;18.326;2023-08-06T13:06:31;22.50;99.90
21267;DHT22;10791;53.108;18.326;2023-08-06T13:11:41;23.00;99.90
21267;DHT22;10791;53.108;18.326;2023-08-06T13:16:45;23.50;99.90
21267;DHT22;10791;53.108;18.326;2023-08-06T13:26:54;24.60;99.90
21267;DHT22;10791;53.108;18.326;2023-08-06T13:31:58;24.60;99.90
21267;DHT22;10791;53.108;18.326;2023-08-06T13:37:02;24.40;99.90
21267;DHT22;10791;53.108;18.326;2023-08-06T13:42:05;24.20;99.90
21267;DHT22;10791;53.108;18.326;2023-08-06T13:47:09;24.20;99.90
21267;DHT22;10791;53.108;18.326;2023-08-06T13:52:12;24.20;99.90
21267;DHT22;10791;53.108;18.326;2023-08-06T13:57:24;24.20;99.90
21267;DHT22;10791;53.108;18.326;2023-08-06T14:02:28;24.20;99.90
21267;DHT22;10791;53.108;18.326;2023-08-06T14:07:32;24.20;99.90
21267;DHT22;10791;53.108;18.326;2023-08-06T14:12:35;24.10;99.90
21267;DHT22;10791;53.108;18.326;2023-08-06T14:17:39;24.00;99.90
21267;DHT22;10791;53.108;18.326;2023-08-06T14:22:43;23.80;99.90
21267;DHT22;10791;53.108;18.326;2023-08-06T14:27:47;23.80;99.90
21267;DHT22;10791;53.108;18.326;2023-08-06T14:32:52;23.70;99.90
21267;DHT22;10791;53.108;18.326;2023-08-06T14:37:55;23.60;99.90
21267;DHT22;10791;53.108;18.326;2023-08-06T14:42:59;23.50;99.90
21267;DHT22;10791;53.108;18.326;2023-08-06T14:48:03;23.60;99.90
21267;DHT22;10791;53.108;18.326;2023-08-06T14:53:07;23.60;99.90
21267;DHT22;10791;53.108;18.326;2023-08-06T14:58:11;23.80;99.90
21267;DHT22;10791;53.108;18.326;2023-08-06T15:03:15;24.00;99.90
21267;DHT22;10791;53.108;18.326;2023-08-06T15:08:19;24.10;99.90
21267;DHT22;10791;53.108;18.326;2023-08-06T15:13:23;24.10;99.90
21267;DHT22;10791;53.108;18.326;2023-08-06T15:18:26;24.30;99.90
21267;DHT22;10791;53.108;18.326;2023-08-06T15:23:30;24.30;99.90
21267;DHT22;10791;53.108;18.326;2023-08-06T15:28:35;24.00;99.90
21267;DHT22;10791;53.108;18.326;2023-08-06T15:33:39;23.40;99.90
21267;DHT22;10791;53.108;18.326;2023-08-06T15:38:43;23.00;99.90
21267;DHT22;10791;53.108;18.326;2023-08-06T15:43:47;22.70;99.90
21267;DHT22;10791;53.108;18.326;2023-08-06T15:48:51;22.30;99.90
21267;DHT22;10791;53.108;18.326;2023-08-06T15:53:54;21.90;99.90
21267;DHT22;10791;53.108;18.326;2023-08-06T15:59:09;21.40;99.90
21267;DHT22;10791;53.108;18.326;2023-08-06T16:04:21;21.10;99.90
21267;DHT22;10791;53.108;18.326;2023-08-06T16:09:25;20.80;99.90
21267;DHT22;10791;53.108;18.326;2023-08-06T16:14:29;20.50;99.90
21267;DHT22;10791;53.108;18.326;2023-08-06T16:19:32;20.30;99.90
21267;DHT22;10791;53.108;18.326;2023-08-06T16:24:37;20.00;99.90
21267;DHT22;10791;53.108;18.326;2023-08-06T16:29:41;19.80;99.90
21267;DHT22;10791;53.108;18.326;2023-08-06T16:34:45;19.60;99.90
21267;DHT22;10791;53.108;18.326;2023-08-06T16:39:49;19.40;99.90
21267;DHT22;10791;53.108;18.326;2023-08-06T16:44:53;19.20;99.90
21267;DHT22;10791;53.108;18.326;2023-08-06T16:49:56;19.00;99.90
21267;DHT22;10791;53.108;18.326;2023-08-06T16:55:00;18.90;99.90
21267;DHT22;10791;53.108;18.326;2023-08-06T17:00:07;18.70;99.90
21267;DHT22;10791;53.108;18.326;2023-08-06T17:05:11;18.60;99.90
21267;DHT22;10791;53.108;18.326;2023-08-06T17:10:15;18.60;99.90
21267;DHT22;10791;53.108;18.326;2023-08-06T17:15:23;18.60;99.90
21267;DHT22;10791;53.108;18.326;2023-08-06T17:20:26;18.50;99.90
21267;DHT22;10791;53.108;18.326;2023-08-06T17:25:30;18.40;99.90
21267;DHT22;10791;53.108;18.326;2023-08-06T17:30:34;18.30;99.90
21267;DHT22;10791;53.108;18.326;2023-08-06T17:35:43;18.10;99.90
21267;DHT22;10791;53.108;18.326;2023-08-06T17:40:53;17.90;99.90
21267;DHT22;10791;53.108;18.326;2023-08-06T17:45:58;17.70;99.90
21267;DHT22;10791;53.108;18.326;2023-08-06T17:51:02;17.50;99.90
21267;DHT22;10791;53.108;18.326;2023-08-06T17:56:05;17.40;99.90
21267;DHT22;10791;53.108;18.326;2023-08-06T18:01:10;17.20;99.90
21267;DHT22;10791;53.108;18.326;2023-08-06T18:06:13;17.20;99.90
21267;DHT22;10791;53.108;18.326;2023-08-06T18:11:17;17.10;99.90
21267;DHT22;10791;53.108;18.326;2023-08-06T18:16:21;16.90;99.90
21267;DHT22;10791;53.108;18.326;2023-08-06T18:21:25;16.80;99.90
21267;DHT22;10791;53.108;18.326;2023-08-06T18:26:29;16.70;99.90
21267;DHT22;10791;53.108;18.326;2023-08-06T18:31:33;16.70;99.90
21267;DHT22;10791;53.108;18.326;2023-08-06T18:36:37;16.70;99.90
21267;DHT22;10791;53.108;18.326;2023-08-06T18:41:41;16.60;99.90
21267;DHT22;10791;53.108;18.326;2023-08-06T18:46:46;16.60;99.90
21267;DHT22;10791;53.108;18.326;2023-08-06T18:51:53;16.50;99.90
21267;DHT22;10791;53.108;18.326;2023-08-06T18:56:57;16.40;99.90
21267;DHT22;10791;53.108;18.326;2023-08-06T19:02:02;16.40;99.90
21267;DHT22;10791;53.108;18.326;2023-08-06T19:07:08;16.30;99.90
21267;DHT22;10791;53.108;18.326;2023-08-06T19:12:13;16.20;99.90
21267;DHT22;10791;53.108;18.326;2023-08-06T19:17:18;16.20;99.90
21267;DHT22;10791;53.108;18.326;2023-08-06T19:22:22;16.10;99.90
21267;DHT22;10791;53.108;18.326;2023-08-06T19:27:26;16.00;99.90
21267;DHT22;10791;53.108;18.326;2023-08-06T19:32:33;15.90;99.90
21267;DHT22;10791;53.108;18.326;2023-08-06T19:37:38;15.90;99.90
21267;DHT22;10791;53.108;18.326;2023-08-06T19:42:44;15.80;99.90
21267;DHT22;10791;53.108;18.326;2023-08-06T19:47:48;15.70;99.90
21267;DHT22;10791;53.108;18.326;2023-08-06T19:52:53;15.60;99.90
21267;DHT22;10791;53.108;18.326;2023-08-06T19:57:57;15.60;99.90
21267;DHT22;10791;53.108;18.326;2023-08-06T20:03:01;15.50;99.90
21267;DHT22;10791;53.108;18.326;2023-08-06T20:08:05;15.50;99.90
21267;DHT22;10791;53.108;18.326;2023-08-06T20:13:10;15.40;99.90
21267;DHT22;10791;53.108;18.326;2023-08-06T20:18:15;15.40;99.90
21267;DHT22;10791;53.108;18.326;2023-08-06T20:23:20;15.30;99.90
21267;DHT22;10791;53.108;18.326;2023-08-06T20:28:26;15.30;99.90
21267;DHT22;10791;53.108;18.326;2023-08-06T20:33:34;15.30;99.90
21267;DHT22;10791;53.108;18.326;2023-08-06T20:38:41;15.30;99.90
21267;DHT22;10791;53.108;18.326;2023-08-06T20:43:47;15.20;99.90
21267;DHT22;10791;53.108;18.326;2023-08-06T20:48:51;15.20;99.90
21267;DHT22;10791;53.108;18.326;2023-08-06T20:53:55;15.20;99.90
21267;DHT22;10791;53.108;18.326;2023-08-06T20:58:59;15.10;99.90
21267;DHT22;10791;53.108;18.326;2023-08-06T21:04:07;15.10;99.90
21267;DHT22;10791;53.108;18.326;2023-08-06T21:09:14;15.00;99.90
21267;DHT22;10791;53.108;18.326;2023-08-06T21:14:18;15.00;99.90
21267;DHT22;10791;53.108;18.326;2023-08-06T21:19:21;14.90;99.90
21267;DHT22;10791;53.108;18.326;2023-08-06T21:24:25;14.90;99.90
21267;DHT22;10791;53.108;18.326;2023-08-06T21:29:29;14.90;99.90
21267;DHT22;10791;53.108;18.326;2023-08-06T21:34:32;14.90;99.90
21267;DHT22;10791;53.108;18.326;2023-08-06T21:39:36;14.90;99.90
21267;DHT22;10791;53.108;18.326;2023-08-06T21:44:39;14.80;99.90
21267;DHT22;10791;53.108;18.326;2023-08-06T21:49:43;14.80;99.90
21267;DHT22;10791;53.108;18.326;2023-08-06T21:54:46;14.70;99.90
21267;DHT22;10791;53.108;18.326;2023-08-06T21:59:50;14.70;99.90
21267;DHT22;10791;53.108;18.326;2023-08-06T22:04:53;14.70;99.90
21267;DHT22;10791;53.108;18.326;2023-08-06T22:09:56;14.70;99.90
21267;DHT22;10791;53.108;18.326;2023-08-06T22:15:00;14.70;99.90
21267;DHT22;10791;53.108;18.326;2023-08-06T22:20:04;14.60;99.90
21267;DHT22;10791;53.108;18.326;2023-08-06T22:25:08;14.60;99.90
21267;DHT22;10791;53.108;18.326;2023-08-06T22:30:12;14.60;99.90
21267;DHT22;10791;53.108;18.326;2023-08-06T22:35:17;14.50;99.90
21267;DHT22;10791;53.108;18.326;2023-08-06T22:40:20;14.50;99.90
21267;DHT22;10791;53.108;18.326;2023-08-06T22:45:24;14.50;99.90
21267;DHT22;10791;53.108;18.326;2023-08-06T22:50:27;14.50;99.90
21267;DHT22;10791;53.108;18.326;2023-08-06T22:55:31;14.40;99.90
21267;DHT22;10791;53.108;18.326;2023-08-06T23:00:37;14.30;99.90
21267;DHT22;10791;53.108;18.326;2023-08-06T23:05:41;14.30;99.90
21267;DHT22;10791;53.108;18.326;2023-08-06T23:10:44;14.30;99.90
21267;DHT22;10791;53.108;18.326;2023-08-06T23:15:47;14.20;99.90
21267;DHT22;10791;53.108;18.326;2023-08-06T23:20:51;14.20;99.90
21267;DHT22;10791;53.108;18.326;2023-08-06T23:25:54;14.10;99.90
21267;DHT22;10791;53.108;18.326;2023-08-06T23:30:58;14.20;99.90
21267;DHT22;10791;53.108;18.326;2023-08-06T23:36:01;14.10;99.90
21267;DHT22;10791;53.108;18.326;2023-08-06T23:41:05;14.10;99.90
21267;DHT22;10791;53.108;18.326;2023-08-06T23:46:08;14.10;99.90
21267;DHT22;10791;53.108;18.326;2023-08-06T23:51:12;14.10;99.90
21267;DHT22;10791;53.108;18.326;2023-08-06T23:56:15;14.10;99.90
